sensor_id;sensor_type;location;lat;lon;timestamp;pressure;altitude;pressure_sealevel;temperature;humidity
10587;BME280;5341;47.606;7.576;2023-11-18T00:02:23;99782.91;;;9.45;67.36
10587;BME280;5341;47.606;7.576;2023-11-18T00:04:52;99781.22;;;9.44;67.31
10587;BME280;5341;47.606;7.576;2023-11-18T00:07:19;99780.25;;;9.45;67.42
10587;BME280;5341;47.606;7.576;2023-11-18T00:09:47;99777.56;;;9.45;67.42
10587;BME280;5341;47.606;7.576;2023-11-18T00:12:14;99775.88;;;9.44;67.25
10587;BME280;5341;47.606;7.576;2023-11-18T00:14:42;99774.03;;;9.45;67.22
10587;BME280;5341;47.606;7.576;2023-11-18T00:17:11;99770.41;;;9.46;67.80
10587;BME280;5341;47.606;7.576;2023-11-18T00:19:40;99768.56;;;9.46;67.50
10587;BME280;5341;47.606;7.576;2023-11-18T00:22:10;99779.25;;;9.46;67.44
10587;BME280;5341;47.606;7.576;2023-11-18T00:24:38;99780.09;;;9.47;67.61
10587;BME280;5341;47.606;7.576;2023-11-18T00:27:05;99785.44;;;9.47;67.15
10587;BME280;5341;47.606;7.576;2023-11-18T00:29:33;99782.75;;;9.47;66.97
10587;BME280;5341;47.606;7.576;2023-11-18T00:32:00;99777.41;;;9.47;67.40
10587;BME280;5341;47.606;7.576;2023-11-18T00:34:28;99772.06;;;9.47;67.40
10587;BME280;5341;47.606;7.576;2023-11-18T00:36:58;99772.75;;;9.49;67.39
10587;BME280;5341;47.606;7.576;2023-11-18T00:39:27;99777.28;;;9.48;67.21
10587;BME280;5341;47.606;7.576;2023-11-18T00:41:55;99772.75;;;9.49;67.23
10587;BME280;5341;47.606;7.576;2023-11-18T00:44:22;99770.94;;;9.49;67.35
10587;BME280;5341;47.606;7.576;2023-11-18T00:46:50;99770.09;;;9.49;67.51
10587;BME280;5341;47.606;7.576;2023-11-18T00:49:18;99772.75;;;9.49;67.37
10587;BME280;5341;47.606;7.576;2023-11-18T00:51:45;99780.78;;;9.49;67.10
10587;BME280;5341;47.606;7.576;2023-11-18T00:54:14;99781.75;;;9.48;67.83
10587;BME280;5341;47.606;7.576;2023-11-18T00:56:42;99784.44;;;9.48;67.59
10587;BME280;5341;47.606;7.576;2023-11-18T00:59:09;99778.25;;;9.47;67.63
10587;BME280;5341;47.606;7.576;2023-11-18T01:01:37;99780.09;;;9.47;67.40
10587;BME280;5341;47.606;7.576;2023-11-18T01:04:04;99776.69;;;9.45;67.56
10587;BME280;5341;47.606;7.576;2023-11-18T01:06:32;99782.19;;;9.43;67.54
10587;BME280;5341;47.606;7.576;2023-11-18T01:09:00;99777.00;;;9.42;67.56
10587;BME280;5341;47.606;7.576;2023-11-18T01:11:29;99775.50;;;9.39;66.89
10587;BME280;5341;47.606;7.576;2023-11-18T01:13:57;99769.47;;;9.37;67.04
10587;BME280;5341;47.606;7.576;2023-11-18T01:16:24;99767.78;;;9.36;67.13
10587;BME280;5341;47.606;7.576;2023-11-18T01:18:54;99764.44;;;9.34;66.93
10587;BME280;5341;47.606;7.576;2023-11-18T01:21:21;99764.56;;;9.32;67.13
10587;BME280;5341;47.606;7.576;2023-11-18T01:23:49;99770.88;;;9.31;67.29
10587;BME280;5341;47.606;7.576;2023-11-18T01:26:17;99772.88;;;9.29;66.77
10587;BME280;5341;47.606;7.576;2023-11-18T01:28:46;99776.53;;;9.28;66.75
10587;BME280;5341;47.606;7.576;2023-11-18T01:31:13;99778.50;;;9.26;67.14
10587;BME280;5341;47.606;7.576;2023-11-18T01:33:42;99771.50;;;9.25;66.84
10587;BME280;5341;47.606;7.576;2023-11-18T01:36:11;99766.31;;;9.24;66.99
10587;BME280;5341;47.606;7.576;2023-11-18T01:38:38;99771.81;;;9.22;66.37
10587;BME280;5341;47.606;7.576;2023-11-18T01:41:07;99776.31;;;9.22;67.13
10587;BME280;5341;47.606;7.576;2023-11-18T01:43:35;99779.09;;;9.20;67.12
10587;BME280;5341;47.606;7.576;2023-11-18T01:46:07;99780.91;;;9.20;67.16
10587;BME280;5341;47.606;7.576;2023-11-18T01:48:40;99782.91;;;9.18;66.92
10587;BME280;5341;47.606;7.576;2023-11-18T01:51:09;99790.06;;;9.17;66.77
10587;BME280;5341;47.606;7.576;2023-11-18T01:53:38;99786.72;;;9.15;66.92
10587;BME280;5341;47.606;7.576;2023-11-18T01:56:08;99777.03;;;9.14;66.54
10587;BME280;5341;47.606;7.576;2023-11-18T01:58:38;99782.53;;;9.13;66.78
10587;BME280;5341;47.606;7.576;2023-11-18T02:01:09;99784.34;;;9.12;66.86
10587;BME280;5341;47.606;7.576;2023-11-18T02:03:37;99773.81;;;9.10;66.55
10587;BME280;5341;47.606;7.576;2023-11-18T02:06:09;99770.44;;;9.08;66.48
10587;BME280;5341;47.606;7.576;2023-11-18T02:08:37;99772.41;;;9.06;66.49
10587;BME280;5341;47.606;7.576;2023-11-18T02:11:13;99762.59;;;9.07;66.83
10587;BME280;5341;47.606;7.576;2023-11-18T02:13:47;99759.22;;;9.05;66.55
10587;BME280;5341;47.606;7.576;2023-11-18T02:16:18;99764.56;;;9.05;66.70
10587;BME280;5341;47.606;7.576;2023-11-18T02:18:47;99758.53;;;9.03;66.72
10587;BME280;5341;47.606;7.576;2023-11-18T02:21:18;99757.72;;;9.02;66.16
10587;BME280;5341;47.606;7.576;2023-11-18T02:23:48;99760.53;;;9.01;66.67
10587;BME280;5341;47.606;7.576;2023-11-18T02:26:22;99762.34;;;9.00;66.41
10587;BME280;5341;47.606;7.576;2023-11-18T02:28:51;99763.34;;;8.99;66.40
10587;BME280;5341;47.606;7.576;2023-11-18T02:31:23;99771.50;;;8.98;66.53
10587;BME280;5341;47.606;7.576;2023-11-18T02:33:56;99767.28;;;8.95;66.62
10587;BME280;5341;47.606;7.576;2023-11-18T02:36:33;99759.41;;;8.94;66.27
10587;BME280;5341;47.606;7.576;2023-11-18T02:39:26;99762.25;;;8.92;66.29
10587;BME280;5341;47.606;7.576;2023-11-18T02:42:04;99758.88;;;8.90;66.43
10587;BME280;5341;47.606;7.576;2023-11-18T02:44:35;99757.34;;;8.88;66.18
10587;BME280;5341;47.606;7.576;2023-11-18T02:47:05;99749.34;;;8.88;65.94
10587;BME280;5341;47.606;7.576;2023-11-18T02:49:34;99738.00;;;8.86;66.35
10587;BME280;5341;47.606;7.576;2023-11-18T02:52:02;99738.00;;;8.86;66.14
10587;BME280;5341;47.606;7.576;2023-11-18T02:54:30;99736.31;;;8.85;66.14
10587;BME280;5341;47.606;7.576;2023-11-18T02:56:58;99743.44;;;8.84;66.28
10587;BME280;5341;47.606;7.576;2023-11-18T02:59:27;99740.94;;;8.82;66.13
10587;BME280;5341;47.606;7.576;2023-11-18T03:01:56;99748.94;;;8.82;66.32
10587;BME280;5341;47.606;7.576;2023-11-18T03:04:24;99756.25;;;8.80;66.17
10587;BME280;5341;47.606;7.576;2023-11-18T03:06:51;99759.91;;;8.79;65.83
10587;BME280;5341;47.606;7.576;2023-11-18T03:09:19;99752.91;;;8.78;65.80
10587;BME280;5341;47.606;7.576;2023-11-18T03:11:47;99756.56;;;8.77;66.03
10587;BME280;5341;47.606;7.576;2023-11-18T03:14:17;99759.38;;;8.76;66.12
10587;BME280;5341;47.606;7.576;2023-11-18T03:16:46;99764.00;;;8.74;65.56
10587;BME280;5341;47.606;7.576;2023-11-18T03:19:14;99757.00;;;8.73;65.99
10587;BME280;5341;47.606;7.576;2023-11-18T03:21:41;99749.97;;;8.72;65.97
10587;BME280;5341;47.606;7.576;2023-11-18T03:24:09;99753.63;;;8.71;65.72
10587;BME280;5341;47.606;7.576;2023-11-18T03:26:36;99745.75;;;8.69;65.33
10587;BME280;5341;47.606;7.576;2023-11-18T03:29:04;99752.09;;;8.68;65.67
10587;BME280;5341;47.606;7.576;2023-11-18T03:31:31;99756.56;;;8.68;66.00
10587;BME280;5341;47.606;7.576;2023-11-18T03:34:00;99765.56;;;8.67;65.77
10587;BME280;5341;47.606;7.576;2023-11-18T03:36:28;99760.38;;;8.65;65.55
10587;BME280;5341;47.606;7.576;2023-11-18T03:38:55;99769.38;;;8.64;65.64
10587;BME280;5341;47.606;7.576;2023-11-18T03:41:23;99766.84;;;8.63;65.69
10587;BME280;5341;47.606;7.576;2023-11-18T03:43:51;99771.50;;;8.61;65.75
10587;BME280;5341;47.606;7.576;2023-11-18T03:46:18;99773.31;;;8.60;65.45
10587;BME280;5341;47.606;7.576;2023-11-18T03:48:46;99770.91;;;8.57;65.51
10587;BME280;5341;47.606;7.576;2023-11-18T03:51:15;99770.09;;;8.57;65.57
10587;BME280;5341;47.606;7.576;2023-11-18T03:53:43;99762.22;;;8.55;65.66
10587;BME280;5341;47.606;7.576;2023-11-18T03:56:16;99758.72;;;8.55;65.40
10587;BME280;5341;47.606;7.576;2023-11-18T03:58:45;99756.22;;;8.53;65.66
10587;BME280;5341;47.606;7.576;2023-11-18T04:01:20;99755.38;;;8.52;65.31
10587;BME280;5341;47.606;7.576;2023-11-18T04:03:49;99755.53;;;8.51;65.52
10587;BME280;5341;47.606;7.576;2023-11-18T04:06:19;99753.00;;;8.49;65.18
10587;BME280;5341;47.606;7.576;2023-11-18T04:08:47;99753.16;;;8.48;64.94
10587;BME280;5341;47.606;7.576;2023-11-18T04:11:16;99762.09;;;8.47;65.69
10587;BME280;5341;47.606;7.576;2023-11-18T04:13:44;99755.09;;;8.46;65.49
10587;BME280;5341;47.606;7.576;2023-11-18T04:16:12;99755.25;;;8.44;65.33
10587;BME280;5341;47.606;7.576;2023-11-18T04:18:39;99765.06;;;8.44;65.12
10587;BME280;5341;47.606;7.576;2023-11-18T04:21:07;99761.56;;;8.43;65.41
10587;BME280;5341;47.606;7.576;2023-11-18T04:23:36;99763.38;;;8.43;65.29
10587;BME280;5341;47.606;7.576;2023-11-18T04:26:05;99759.88;;;8.42;65.45
10587;BME280;5341;47.606;7.576;2023-11-18T04:28:33;99763.38;;;8.43;65.25
10587;BME280;5341;47.606;7.576;2023-11-18T04:31:00;99764.38;;;8.42;65.11
10587;BME280;5341;47.606;7.576;2023-11-18T04:33:29;99768.72;;;8.43;65.17
10587;BME280;5341;47.606;7.576;2023-11-18T04:35:57;99766.06;;;8.43;65.42
10587;BME280;5341;47.606;7.576;2023-11-18T04:38:25;99758.06;;;8.43;65.29
10587;BME280;5341;47.606;7.576;2023-11-18T04:40:55;99751.88;;;8.42;65.66
10587;BME280;5341;47.606;7.576;2023-11-18T04:43:23;99750.91;;;8.43;65.45
10587;BME280;5341;47.606;7.576;2023-11-18T04:45:50;99744.72;;;8.43;65.55
10587;BME280;5341;47.606;7.576;2023-11-18T04:48:18;99727.75;;;8.44;65.69
10587;BME280;5341;47.606;7.576;2023-11-18T04:50:47;99731.25;;;8.44;65.94
10587;BME280;5341;47.606;7.576;2023-11-18T04:53:15;99732.94;;;8.45;65.70
10587;BME280;5341;47.606;7.576;2023-11-18T04:55:42;99731.09;;;8.46;65.67
10587;BME280;5341;47.606;7.576;2023-11-18T04:58:12;99738.13;;;8.47;65.85
10587;BME280;5341;47.606;7.576;2023-11-18T05:00:39;99727.44;;;8.47;65.68
10587;BME280;5341;47.606;7.576;2023-11-18T05:03:08;99727.44;;;8.47;65.98
10587;BME280;5341;47.606;7.576;2023-11-18T05:05:36;99729.16;;;8.48;66.19
10587;BME280;5341;47.606;7.576;2023-11-18T05:08:05;99729.00;;;8.49;66.07
10587;BME280;5341;47.606;7.576;2023-11-18T05:10:34;99729.84;;;8.50;66.29
10587;BME280;5341;47.606;7.576;2023-11-18T05:13:00;99731.69;;;8.49;65.82
10587;BME280;5341;47.606;7.576;2023-11-18T05:15:30;99719.19;;;8.50;66.27
10587;BME280;5341;47.606;7.576;2023-11-18T05:17:57;99717.34;;;8.50;66.39
10587;BME280;5341;47.606;7.576;2023-11-18T05:20:25;99717.34;;;8.50;66.17
10587;BME280;5341;47.606;7.576;2023-11-18T05:22:53;99712.03;;;8.50;65.91
10587;BME280;5341;47.606;7.576;2023-11-18T05:25:21;99711.19;;;8.50;66.42
10587;BME280;5341;47.606;7.576;2023-11-18T05:27:48;99712.88;;;8.51;66.26
10587;BME280;5341;47.606;7.576;2023-11-18T05:30:16;99718.06;;;8.52;66.26
10587;BME280;5341;47.606;7.576;2023-11-18T05:32:45;99718.88;;;8.53;66.59
10587;BME280;5341;47.606;7.576;2023-11-18T05:35:12;99715.38;;;8.52;66.57
10587;BME280;5341;47.606;7.576;2023-11-18T05:37:40;99718.88;;;8.53;66.50
10587;BME280;5341;47.606;7.576;2023-11-18T05:40:08;99716.22;;;8.53;66.62
10587;BME280;5341;47.606;7.576;2023-11-18T05:42:37;99713.56;;;8.53;66.73
10587;BME280;5341;47.606;7.576;2023-11-18T05:45:08;99714.41;;;8.54;66.54
10587;BME280;5341;47.606;7.576;2023-11-18T05:47:44;99705.41;;;8.55;66.68
10587;BME280;5341;47.606;7.576;2023-11-18T05:50:12;99705.41;;;8.55;66.45
10587;BME280;5341;47.606;7.576;2023-11-18T05:52:40;99723.22;;;8.54;66.76
10587;BME280;5341;47.606;7.576;2023-11-18T05:55:08;99713.41;;;8.55;66.66
10587;BME280;5341;47.606;7.576;2023-11-18T05:57:36;99715.22;;;8.54;66.47
10587;BME280;5341;47.606;7.576;2023-11-18T06:00:05;99706.25;;;8.55;66.70
10587;BME280;5341;47.606;7.576;2023-11-18T06:02:38;99707.25;;;8.54;66.75
10587;BME280;5341;47.606;7.576;2023-11-18T06:05:08;99693.91;;;8.54;66.52
10587;BME280;5341;47.606;7.576;2023-11-18T06:07:38;99692.91;;;8.55;67.04
10587;BME280;5341;47.606;7.576;2023-11-18T06:10:09;99690.25;;;8.55;66.65
10587;BME280;5341;47.606;7.576;2023-11-18T06:12:38;99699.09;;;8.56;66.69
10587;BME280;5341;47.606;7.576;2023-11-18T06:15:07;99699.94;;;8.56;67.07
10587;BME280;5341;47.606;7.576;2023-11-18T06:17:40;99696.41;;;8.56;66.91
10587;BME280;5341;47.606;7.576;2023-11-18T06:20:10;99699.09;;;8.56;67.27
10587;BME280;5341;47.606;7.576;2023-11-18T06:22:40;99698.25;;;8.55;66.71
10587;BME280;5341;47.606;7.576;2023-11-18T06:25:08;99699.09;;;8.56;66.89
10587;BME280;5341;47.606;7.576;2023-11-18T06:27:35;99691.09;;;8.56;67.20
10587;BME280;5341;47.606;7.576;2023-11-18T06:30:04;99701.75;;;8.56;67.14
10587;BME280;5341;47.606;7.576;2023-11-18T06:32:32;99707.91;;;8.56;67.07
10587;BME280;5341;47.606;7.576;2023-11-18T06:34:59;99699.94;;;8.56;66.83
10587;BME280;5341;47.606;7.576;2023-11-18T06:37:33;99693.59;;;8.57;67.04
10587;BME280;5341;47.606;7.576;2023-11-18T06:40:01;99705.25;;;8.56;66.80
10587;BME280;5341;47.606;7.576;2023-11-18T06:42:38;99697.25;;;8.56;66.78
10587;BME280;5341;47.606;7.576;2023-11-18T06:45:06;99696.41;;;8.56;67.19
10587;BME280;5341;47.606;7.576;2023-11-18T06:47:35;99701.59;;;8.57;66.73
10587;BME280;5341;47.606;7.576;2023-11-18T06:50:04;99704.28;;;8.57;67.01
10587;BME280;5341;47.606;7.576;2023-11-18T06:52:36;99705.09;;;8.58;66.94
10587;BME280;5341;47.606;7.576;2023-11-18T06:55:05;99705.25;;;8.56;67.08
10587;BME280;5341;47.606;7.576;2023-11-18T06:57:33;99700.75;;;8.57;66.97
10587;BME280;5341;47.606;7.576;2023-11-18T07:00:02;99703.44;;;8.57;66.81
10587;BME280;5341;47.606;7.576;2023-11-18T07:02:34;99706.94;;;8.57;67.14
10587;BME280;5341;47.606;7.576;2023-11-18T07:05:01;99707.78;;;8.58;66.93
10587;BME280;5341;47.606;7.576;2023-11-18T07:07:29;99713.78;;;8.60;67.11
10587;BME280;5341;47.606;7.576;2023-11-18T07:09:59;99719.28;;;8.58;67.18
10587;BME280;5341;47.606;7.576;2023-11-18T07:12:27;99724.47;;;8.60;66.69
10587;BME280;5341;47.606;7.576;2023-11-18T07:14:55;99732.47;;;8.60;66.97
10587;BME280;5341;47.606;7.576;2023-11-18T07:17:22;99737.69;;;8.61;66.70
10587;BME280;5341;47.606;7.576;2023-11-18T07:19:50;99734.16;;;8.61;67.01
10587;BME280;5341;47.606;7.576;2023-11-18T07:22:17;99738.50;;;8.62;67.16
10587;BME280;5341;47.606;7.576;2023-11-18T07:24:45;99746.50;;;8.62;66.81
10587;BME280;5341;47.606;7.576;2023-11-18T07:27:14;99742.72;;;8.64;67.22
10587;BME280;5341;47.606;7.576;2023-11-18T07:29:42;99735.69;;;8.63;66.89
10587;BME280;5341;47.606;7.576;2023-11-18T07:32:11;99750.41;;;8.67;67.14
10587;BME280;5341;47.606;7.576;2023-11-18T07:34:39;99742.41;;;8.67;67.05
10587;BME280;5341;47.606;7.576;2023-11-18T07:37:07;99727.25;;;8.68;67.37
10587;BME280;5341;47.606;7.576;2023-11-18T07:39:35;99720.94;;;8.69;67.22
10587;BME280;5341;47.606;7.576;2023-11-18T07:42:11;99722.59;;;8.70;67.55
10587;BME280;5341;47.606;7.576;2023-11-18T07:44:41;99722.44;;;8.71;67.66
10587;BME280;5341;47.606;7.576;2023-11-18T07:47:08;99733.97;;;8.72;67.02
10587;BME280;5341;47.606;7.576;2023-11-18T07:49:37;99741.00;;;8.73;67.51
10587;BME280;5341;47.606;7.576;2023-11-18T07:52:05;99735.53;;;8.74;67.46
10587;BME280;5341;47.606;7.576;2023-11-18T07:54:32;99728.50;;;8.73;67.22
10587;BME280;5341;47.606;7.576;2023-11-18T07:57:00;99731.03;;;8.75;67.44
10587;BME280;5341;47.606;7.576;2023-11-18T07:59:30;99733.69;;;8.75;67.52
10587;BME280;5341;47.606;7.576;2023-11-18T08:01:59;99722.72;;;8.78;67.41
10587;BME280;5341;47.606;7.576;2023-11-18T08:04:28;99733.38;;;8.78;67.67
10587;BME280;5341;47.606;7.576;2023-11-18T08:06:57;99726.91;;;8.80;67.67
10587;BME280;5341;47.606;7.576;2023-11-18T08:09:25;99721.28;;;8.84;67.69
10587;BME280;5341;47.606;7.576;2023-11-18T08:11:54;99725.50;;;8.86;67.81
10587;BME280;5341;47.606;7.576;2023-11-18T08:14:21;99711.84;;;8.89;67.94
10587;BME280;5341;47.606;7.576;2023-11-18T08:16:49;99705.38;;;8.92;68.01
10587;BME280;5341;47.606;7.576;2023-11-18T08:19:20;99687.41;;;8.94;67.67
10587;BME280;5341;47.606;7.576;2023-11-18T08:21:48;99694.41;;;8.95;67.91
10587;BME280;5341;47.606;7.576;2023-11-18T08:24:17;99686.13;;;8.98;68.03
10587;BME280;5341;47.606;7.576;2023-11-18T08:26:46;99674.31;;;9.00;67.85
10587;BME280;5341;47.606;7.576;2023-11-18T08:29:13;99676.00;;;9.01;67.92
10587;BME280;5341;47.606;7.576;2023-11-18T08:31:42;99677.50;;;9.04;68.19
10587;BME280;5341;47.606;7.576;2023-11-18T08:34:10;99667.69;;;9.04;68.10
10587;BME280;5341;47.606;7.576;2023-11-18T08:36:39;99661.19;;;9.07;67.88
10587;BME280;5341;47.606;7.576;2023-11-18T08:39:09;99675.25;;;9.09;68.13
10587;BME280;5341;47.606;7.576;2023-11-18T08:41:37;99669.59;;;9.12;68.26
10587;BME280;5341;47.606;7.576;2023-11-18T08:44:05;99670.28;;;9.14;68.08
10587;BME280;5341;47.606;7.576;2023-11-18T08:46:35;99672.66;;;9.17;68.38
10587;BME280;5341;47.606;7.576;2023-11-18T08:49:02;99678.53;;;9.21;68.10
10587;BME280;5341;47.606;7.576;2023-11-18T08:51:36;99669.53;;;9.22;68.33
10587;BME280;5341;47.606;7.576;2023-11-18T08:54:09;99678.22;;;9.24;68.09
10587;BME280;5341;47.606;7.576;2023-11-18T08:56:52;99674.41;;;9.26;68.64
10587;BME280;5341;47.606;7.576;2023-11-18T08:59:20;99683.09;;;9.28;68.37
10587;BME280;5341;47.606;7.576;2023-11-18T09:01:51;99672.28;;;9.30;68.11
10587;BME280;5341;47.606;7.576;2023-11-18T09:04:22;99667.78;;;9.30;68.21
10587;BME280;5341;47.606;7.576;2023-11-18T09:06:50;99671.13;;;9.32;67.80
10587;BME280;5341;47.606;7.576;2023-11-18T09:09:21;99678.84;;;9.35;68.15
10587;BME280;5341;47.606;7.576;2023-11-18T09:11:54;99674.34;;;9.36;68.38
10587;BME280;5341;47.606;7.576;2023-11-18T09:14:23;99670.69;;;9.37;67.95
10587;BME280;5341;47.606;7.576;2023-11-18T09:16:52;99665.03;;;9.40;68.11
10587;BME280;5341;47.606;7.576;2023-11-18T09:19:29;99660.38;;;9.42;68.22
10587;BME280;5341;47.606;7.576;2023-11-18T09:22:03;99670.06;;;9.43;68.08
10587;BME280;5341;47.606;7.576;2023-11-18T09:24:32;99670.78;;;9.45;68.11
10587;BME280;5341;47.606;7.576;2023-11-18T09:27:01;99662.63;;;9.47;67.90
10587;BME280;5341;47.606;7.576;2023-11-18T09:29:35;99672.13;;;9.49;67.51
10587;BME280;5341;47.606;7.576;2023-11-18T09:32:04;99669.31;;;9.51;68.14
10587;BME280;5341;47.606;7.576;2023-11-18T09:34:32;99680.69;;;9.53;67.38
10587;BME280;5341;47.606;7.576;2023-11-18T09:36:59;99689.38;;;9.55;67.86
10587;BME280;5341;47.606;7.576;2023-11-18T09:39:27;99682.03;;;9.57;67.62
10587;BME280;5341;47.606;7.576;2023-11-18T09:42:07;99675.56;;;9.59;67.78
10587;BME280;5341;47.606;7.576;2023-11-18T09:44:37;99670.91;;;9.61;67.47
10587;BME280;5341;47.606;7.576;2023-11-18T09:47:08;99672.44;;;9.64;67.66
10587;BME280;5341;47.606;7.576;2023-11-18T09:49:41;99681.28;;;9.64;67.76
10587;BME280;5341;47.606;7.576;2023-11-18T09:52:15;99688.97;;;9.67;67.87
10587;BME280;5341;47.606;7.576;2023-11-18T09:54:48;99684.34;;;9.69;68.13
10587;BME280;5341;47.606;7.576;2023-11-18T09:57:26;99690.38;;;9.72;67.83
10587;BME280;5341;47.606;7.576;2023-11-18T10:00:00;99690.22;;;9.73;68.07
10587;BME280;5341;47.606;7.576;2023-11-18T10:02:39;99690.91;;;9.75;68.07
10587;BME280;5341;47.606;7.576;2023-11-18T10:05:08;99695.25;;;9.76;68.02
10587;BME280;5341;47.606;7.576;2023-11-18T10:07:39;99705.59;;;9.79;68.12
10587;BME280;5341;47.606;7.576;2023-11-18T10:10:08;99692.09;;;9.81;67.57
10587;BME280;5341;47.606;7.576;2023-11-18T10:12:43;99693.47;;;9.85;68.26
10587;BME280;5341;47.606;7.576;2023-11-18T10:15:14;99682.63;;;9.86;67.54
10587;BME280;5341;47.606;7.576;2023-11-18T10:17:44;99673.63;;;9.87;67.84
10587;BME280;5341;47.606;7.576;2023-11-18T10:20:22;99668.97;;;9.89;67.25
10587;BME280;5341;47.606;7.576;2023-11-18T10:23:13;99671.31;;;9.92;67.49
10587;BME280;5341;47.606;7.576;2023-11-18T10:25:46;99673.31;;;9.90;67.14
10587;BME280;5341;47.606;7.576;2023-11-18T10:28:28;99665.00;;;9.93;66.88
10587;BME280;5341;47.606;7.576;2023-11-18T10:30:59;99665.00;;;9.93;67.57
10587;BME280;5341;47.606;7.576;2023-11-18T10:33:29;99665.00;;;9.93;67.31
10587;BME280;5341;47.606;7.576;2023-11-18T10:35:59;99675.53;;;9.95;66.77
10587;BME280;5341;47.606;7.576;2023-11-18T10:38:30;99678.88;;;9.97;66.92
10587;BME280;5341;47.606;7.576;2023-11-18T10:40:59;99680.56;;;9.98;67.06
10587;BME280;5341;47.606;7.576;2023-11-18T10:43:29;99684.06;;;9.98;66.86
10587;BME280;5341;47.606;7.576;2023-11-18T10:46:15;99683.75;;;10.02;67.14
10587;BME280;5341;47.606;7.576;2023-11-18T10:48:45;99683.06;;;9.99;66.63
10587;BME280;5341;47.606;7.576;2023-11-18T10:51:14;99695.44;;;10.01;66.48
10587;BME280;5341;47.606;7.576;2023-11-18T10:53:42;99687.41;;;10.01;66.50
10587;BME280;5341;47.606;7.576;2023-11-18T10:56:19;99687.41;;;10.01;66.57
10587;BME280;5341;47.606;7.576;2023-11-18T10:58:55;99685.59;;;10.01;66.57
10587;BME280;5341;47.606;7.576;2023-11-18T11:01:30;99688.94;;;10.03;66.82
10587;BME280;5341;47.606;7.576;2023-11-18T11:03:59;99681.91;;;10.02;66.24
10587;BME280;5341;47.606;7.576;2023-11-18T11:06:31;99685.41;;;10.03;66.80
10587;BME280;5341;47.606;7.576;2023-11-18T11:09:00;99681.75;;;10.04;66.35
10587;BME280;5341;47.606;7.576;2023-11-18T11:11:39;99683.59;;;10.03;66.57
10587;BME280;5341;47.606;7.576;2023-11-18T11:14:12;99680.75;;;10.05;67.02
10587;BME280;5341;47.606;7.576;2023-11-18T11:16:42;99683.31;;;10.06;66.73
10587;BME280;5341;47.606;7.576;2023-11-18T11:19:17;99685.97;;;10.06;66.43
10587;BME280;5341;47.606;7.576;2023-11-18T11:21:54;99687.66;;;10.07;67.10
10587;BME280;5341;47.606;7.576;2023-11-18T11:24:31;99679.63;;;10.07;66.86
10587;BME280;5341;47.606;7.576;2023-11-18T11:27:08;99679.63;;;10.07;67.06
10587;BME280;5341;47.606;7.576;2023-11-18T11:29:51;99667.94;;;10.08;66.32
10587;BME280;5341;47.606;7.576;2023-11-18T11:32:26;99667.94;;;10.08;66.75
10587;BME280;5341;47.606;7.576;2023-11-18T11:35:01;99675.81;;;10.10;67.07
10587;BME280;5341;47.606;7.576;2023-11-18T11:37:33;99672.28;;;10.09;66.94
10587;BME280;5341;47.606;7.576;2023-11-18T11:40:02;99669.47;;;10.11;66.60
10587;BME280;5341;47.606;7.576;2023-11-18T11:42:35;99668.63;;;10.10;66.63
10587;BME280;5341;47.606;7.576;2023-11-18T11:45:05;99663.13;;;10.12;66.67
10587;BME280;5341;47.606;7.576;2023-11-18T11:47:46;99652.41;;;10.12;66.68
10587;BME280;5341;47.606;7.576;2023-11-18T11:50:19;99654.09;;;10.13;66.82
10587;BME280;5341;47.606;7.576;2023-11-18T11:53:02;99658.59;;;10.12;66.39
10587;BME280;5341;47.606;7.576;2023-11-18T11:55:37;99649.59;;;10.13;66.27
10587;BME280;5341;47.606;7.576;2023-11-18T11:58:25;99648.59;;;10.14;66.12
10587;BME280;5341;47.606;7.576;2023-11-18T12:00:54;99651.44;;;10.13;66.18
10587;BME280;5341;47.606;7.576;2023-11-18T12:03:22;99652.09;;;10.15;66.68
10587;BME280;5341;47.606;7.576;2023-11-18T12:05:54;99652.78;;;10.17;66.78
10587;BME280;5341;47.606;7.576;2023-11-18T12:08:22;99658.13;;;10.17;66.23
10587;BME280;5341;47.606;7.576;2023-11-18T12:10:53;99648.97;;;10.19;67.12
10587;BME280;5341;47.606;7.576;2023-11-18T12:13:22;99641.78;;;10.20;66.92
10587;BME280;5341;47.606;7.576;2023-11-18T12:15:54;99633.66;;;10.21;66.66
10587;BME280;5341;47.606;7.576;2023-11-18T12:18:23;99624.63;;;10.22;66.87
10587;BME280;5341;47.606;7.576;2023-11-18T12:20:51;99616.59;;;10.22;66.80
10587;BME280;5341;47.606;7.576;2023-11-18T12:23:21;99618.28;;;10.23;66.75
10587;BME280;5341;47.606;7.576;2023-11-18T12:25:51;99611.94;;;10.24;66.68
10587;BME280;5341;47.606;7.576;2023-11-18T12:28:25;99602.06;;;10.25;66.19
10587;BME280;5341;47.606;7.576;2023-11-18T12:30:55;99585.03;;;10.26;65.94
10587;BME280;5341;47.606;7.576;2023-11-18T12:33:23;99572.50;;;10.26;66.18
10587;BME280;5341;47.606;7.576;2023-11-18T12:36:15;99573.19;;;10.28;66.36
10587;BME280;5341;47.606;7.576;2023-11-18T12:39:22;99567.81;;;10.28;66.51
10587;BME280;5341;47.606;7.576;2023-11-18T12:42:02;99569.84;;;10.26;65.87
10587;BME280;5341;47.606;7.576;2023-11-18T12:44:38;99564.50;;;10.26;66.04
10587;BME280;5341;47.606;7.576;2023-11-18T12:47:14;99566.16;;;10.27;66.23
10587;BME280;5341;47.606;7.576;2023-11-18T12:49:44;99572.34;;;10.28;66.08
10587;BME280;5341;47.606;7.576;2023-11-18T12:52:16;99566.31;;;10.26;65.78
10587;BME280;5341;47.606;7.576;2023-11-18T12:54:45;99570.66;;;10.27;66.06
10587;BME280;5341;47.606;7.576;2023-11-18T12:57:17;99569.66;;;10.28;65.81
10587;BME280;5341;47.606;7.576;2023-11-18T12:59:45;99567.81;;;10.28;66.24
10587;BME280;5341;47.606;7.576;2023-11-18T13:02:14;99571.34;;;10.29;65.98
10587;BME280;5341;47.606;7.576;2023-11-18T13:04:45;99561.66;;;10.28;66.25
10587;BME280;5341;47.606;7.576;2023-11-18T13:07:15;99562.47;;;10.28;66.28
10587;BME280;5341;47.606;7.576;2023-11-18T13:09:43;99551.50;;;10.32;66.52
10587;BME280;5341;47.606;7.576;2023-11-18T13:12:12;99539.97;;;10.31;66.21
10587;BME280;5341;47.606;7.576;2023-11-18T13:14:42;99540.63;;;10.33;66.20
10587;BME280;5341;47.606;7.576;2023-11-18T13:17:10;99534.28;;;10.34;66.17
10587;BME280;5341;47.606;7.576;2023-11-18T13:19:40;99529.78;;;10.35;66.05
10587;BME280;5341;47.606;7.576;2023-11-18T13:22:09;99525.09;;;10.37;66.33
10587;BME280;5341;47.606;7.576;2023-11-18T13:24:37;99521.41;;;10.38;66.51
10587;BME280;5341;47.606;7.576;2023-11-18T13:27:06;99508.88;;;10.38;66.44
10587;BME280;5341;47.606;7.576;2023-11-18T13:29:35;99500.69;;;10.40;66.51
10587;BME280;5341;47.606;7.576;2023-11-18T13:32:06;99497.03;;;10.41;66.49
10587;BME280;5341;47.606;7.576;2023-11-18T13:34:35;99501.53;;;10.40;66.46
10587;BME280;5341;47.606;7.576;2023-11-18T13:37:05;99495.19;;;10.41;66.66